sensor_id;sensor_type;location;lat;lon;timestamp;pressure;altitude;pressure_sealevel;temperature;humidity
11415;BME280;5763;42.714;23.244;2022-07-29T00:01:46;94763.50;;;22.72;70.57
11415;BME280;5763;42.714;23.244;2022-07-29T00:04:15;94775.88;;;22.76;70.93
11415;BME280;5763;42.714;23.244;2022-07-29T00:06:41;94782.13;;;22.64;70.26
11415;BME280;5763;42.714;23.244;2022-07-29T00:09:08;94780.97;;;22.54;70.16
11415;BME280;5763;42.714;23.244;2022-07-29T00:11:35;94770.22;;;22.39;70.50
11415;BME280;5763;42.714;23.244;2022-07-29T00:14:02;94765.97;;;22.33;70.96
11415;BME280;5763;42.714;23.244;2022-07-29T00:16:29;94756.06;;;22.13;71.70
11415;BME280;5763;42.714;23.244;2022-07-29T00:18:55;94764.72;;;22.10;71.83
11415;BME280;5763;42.714;23.244;2022-07-29T00:21:23;94762.84;;;21.94;72.46
11415;BME280;5763;42.714;23.244;2022-07-29T00:23:50;94752.56;;;21.83;73.10
11415;BME280;5763;42.714;23.244;2022-07-29T00:26:17;94763.25;;;21.79;73.54
11415;BME280;5763;42.714;23.244;2022-07-29T00:28:44;94766.63;;;21.72;74.26
11415;BME280;5763;42.714;23.244;2022-07-29T00:31:11;94771.69;;;21.74;74.82
11415;BME280;5763;42.714;23.244;2022-07-29T00:33:37;94769.28;;;21.83;74.54
11415;BME280;5763;42.714;23.244;2022-07-29T00:36:04;94778.31;;;21.95;74.02
11415;BME280;5763;42.714;23.244;2022-07-29T00:38:31;94779.84;;;21.90;74.17
11415;BME280;5763;42.714;23.244;2022-07-29T00:40:58;94778.75;;;21.75;75.43
11415;BME280;5763;42.714;23.244;2022-07-29T00:43:25;94773.25;;;21.64;76.13
11415;BME280;5763;42.714;23.244;2022-07-29T00:45:52;94768.81;;;21.50;76.99
11415;BME280;5763;42.714;23.244;2022-07-29T00:50:45;94767.13;;;21.71;75.68
11415;BME280;5763;42.714;23.244;2022-07-29T00:53:12;94760.88;;;21.59;76.03
11415;BME280;5763;42.714;23.244;2022-07-29T00:55:40;94764.25;;;21.47;76.85
11415;BME280;5763;42.714;23.244;2022-07-29T00:58:08;94762.84;;;21.64;76.49
11415;BME280;5763;42.714;23.244;2022-07-29T01:00:35;94768.81;;;21.79;75.39
11415;BME280;5763;42.714;23.244;2022-07-29T01:03:02;94766.97;;;21.87;74.65
11415;BME280;5763;42.714;23.244;2022-07-29T01:05:29;94752.47;;;21.94;74.10
11415;BME280;5763;42.714;23.244;2022-07-29T01:07:57;94741.78;;;21.98;73.86
11415;BME280;5763;42.714;23.244;2022-07-29T01:10:24;94742.44;;;22.10;73.31
11415;BME280;5763;42.714;23.244;2022-07-29T01:12:54;94747.53;;;22.06;73.24
11415;BME280;5763;42.714;23.244;2022-07-29T01:15:21;94742.44;;;22.10;73.11
11415;BME280;5763;42.714;23.244;2022-07-29T01:17:54;94745.13;;;22.15;72.94
11415;BME280;5763;42.714;23.244;2022-07-29T01:20:28;94749.81;;;22.07;73.17
11415;BME280;5763;42.714;23.244;2022-07-29T01:23:26;94738.34;;;22.11;73.27
11415;BME280;5763;42.714;23.244;2022-07-29T01:26:24;94737.28;;;22.14;73.13
11415;BME280;5763;42.714;23.244;2022-07-29T01:29:02;94733.00;;;22.13;73.30
11415;BME280;5763;42.714;23.244;2022-07-29T01:31:35;94727.78;;;22.04;73.52
11415;BME280;5763;42.714;23.244;2022-07-29T01:34:07;94729.75;;;22.09;73.29
11415;BME280;5763;42.714;23.244;2022-07-29T01:36:37;94741.66;;;22.09;72.94
11415;BME280;5763;42.714;23.244;2022-07-29T01:39:09;94736.13;;;22.04;72.56
11415;BME280;5763;42.714;23.244;2022-07-29T01:41:40;94735.56;;;21.87;73.31
11415;BME280;5763;42.714;23.244;2022-07-29T01:44:17;94731.09;;;21.78;73.61
11415;BME280;5763;42.714;23.244;2022-07-29T01:46:49;94731.97;;;21.62;74.18
11415;BME280;5763;42.714;23.244;2022-07-29T01:49:21;94726.22;;;21.55;74.73
11415;BME280;5763;42.714;23.244;2022-07-29T01:51:51;94731.84;;;21.49;74.87
11415;BME280;5763;42.714;23.244;2022-07-29T01:54:20;94721.31;;;21.37;75.47
11415;BME280;5763;42.714;23.244;2022-07-29T01:56:50;94724.84;;;21.37;75.45
11415;BME280;5763;42.714;23.244;2022-07-29T01:59:20;94729.66;;;21.37;75.85
11415;BME280;5763;42.714;23.244;2022-07-29T02:01:49;94720.66;;;21.25;76.08
11415;BME280;5763;42.714;23.244;2022-07-29T02:04:19;94725.75;;;21.21;76.31
11415;BME280;5763;42.714;23.244;2022-07-29T02:06:49;94727.44;;;21.30;76.31
11415;BME280;5763;42.714;23.244;2022-07-29T02:09:18;94708.19;;;21.32;75.71
11415;BME280;5763;42.714;23.244;2022-07-29T02:11:49;94713.03;;;21.31;75.96
11415;BME280;5763;42.714;23.244;2022-07-29T02:14:20;94715.94;;;21.44;75.73
11415;BME280;5763;42.714;23.244;2022-07-29T02:16:51;94717.63;;;21.53;75.23
11415;BME280;5763;42.714;23.244;2022-07-29T02:19:22;94712.53;;;21.57;74.96
11415;BME280;5763;42.714;23.244;2022-07-29T02:21:51;94712.69;;;21.70;75.01
11415;BME280;5763;42.714;23.244;2022-07-29T02:24:22;94714.41;;;21.73;74.73
11415;BME280;5763;42.714;23.244;2022-07-29T02:26:52;94706.81;;;21.73;74.96
11415;BME280;5763;42.714;23.244;2022-07-29T02:29:22;94706.75;;;21.79;75.01
11415;BME280;5763;42.714;23.244;2022-07-29T02:31:50;94698.66;;;21.81;74.86
11415;BME280;5763;42.714;23.244;2022-07-29T02:34:19;94699.63;;;21.83;74.17
11415;BME280;5763;42.714;23.244;2022-07-29T02:36:47;94695.78;;;21.86;74.12
11415;BME280;5763;42.714;23.244;2022-07-29T02:39:15;94703.16;;;21.84;74.34
11415;BME280;5763;42.714;23.244;2022-07-29T02:41:45;94701.91;;;21.85;74.00
11415;BME280;5763;42.714;23.244;2022-07-29T02:44:14;94701.31;;;21.92;73.72
11415;BME280;5763;42.714;23.244;2022-07-29T02:46:47;94706.06;;;21.97;73.25
11415;BME280;5763;42.714;23.244;2022-07-29T02:49:22;94702.59;;;21.91;73.66
11415;BME280;5763;42.714;23.244;2022-07-29T02:51:57;94695.56;;;21.84;73.86
11415;BME280;5763;42.714;23.244;2022-07-29T02:54:31;94694.22;;;21.91;73.68
11415;BME280;5763;42.714;23.244;2022-07-29T02:57:06;94692.19;;;21.91;73.51
11415;BME280;5763;42.714;23.244;2022-07-29T02:59:36;94696.50;;;21.92;73.72
11415;BME280;5763;42.714;23.244;2022-07-29T03:02:06;94696.94;;;21.96;73.83
11415;BME280;5763;42.714;23.244;2022-07-29T03:04:34;94693.88;;;22.00;73.82
11415;BME280;5763;42.714;23.244;2022-07-29T03:07:02;94693.59;;;22.03;73.33
11415;BME280;5763;42.714;23.244;2022-07-29T03:09:30;94693.59;;;22.03;73.06
11415;BME280;5763;42.714;23.244;2022-07-29T03:11:58;94702.69;;;22.04;73.69
11415;BME280;5763;42.714;23.244;2022-07-29T03:14:25;94700.63;;;22.10;73.28
11415;BME280;5763;42.714;23.244;2022-07-29T03:16:53;94701.44;;;22.05;73.54
11415;BME280;5763;42.714;23.244;2022-07-29T03:19:21;94703.97;;;22.03;74.02
11415;BME280;5763;42.714;23.244;2022-07-29T03:21:48;94699.69;;;22.02;74.18
11415;BME280;5763;42.714;23.244;2022-07-29T03:24:29;94710.06;;;22.01;74.16
11415;BME280;5763;42.714;23.244;2022-07-29T03:26:57;94710.00;;;22.07;73.99
11415;BME280;5763;42.714;23.244;2022-07-29T03:29:24;94706.25;;;22.04;74.07
11415;BME280;5763;42.714;23.244;2022-07-29T03:31:51;94706.53;;;22.01;74.43
11415;BME280;5763;42.714;23.244;2022-07-29T03:34:18;94712.09;;;22.01;74.33
11415;BME280;5763;42.714;23.244;2022-07-29T03:36:46;94708.38;;;21.93;73.62
11415;BME280;5763;42.714;23.244;2022-07-29T03:39:16;94717.56;;;21.88;73.87
11415;BME280;5763;42.714;23.244;2022-07-29T03:41:45;94711.63;;;21.73;73.71
11415;BME280;5763;42.714;23.244;2022-07-29T03:44:15;94712.69;;;21.70;73.85
11415;BME280;5763;42.714;23.244;2022-07-29T03:46:43;94721.69;;;21.52;73.69
11415;BME280;5763;42.714;23.244;2022-07-29T03:49:11;94718.31;;;21.35;74.42
11415;BME280;5763;42.714;23.244;2022-07-29T03:51:40;94717.13;;;21.25;75.30
11415;BME280;5763;42.714;23.244;2022-07-29T03:54:08;94716.63;;;21.21;75.88
11415;BME280;5763;42.714;23.244;2022-07-29T03:56:38;94714.09;;;21.23;76.25
11415;BME280;5763;42.714;23.244;2022-07-29T03:59:07;94718.19;;;21.16;76.75
11415;BME280;5763;42.714;23.244;2022-07-29T04:01:35;94719.59;;;21.28;76.71
11415;BME280;5763;42.714;23.244;2022-07-29T04:04:02;94711.22;;;21.34;76.15
11415;BME280;5763;42.714;23.244;2022-07-29T04:06:37;94720.59;;;21.60;75.48
11415;BME280;5763;42.714;23.244;2022-07-29T04:09:05;94721.31;;;21.66;75.55
11415;BME280;5763;42.714;23.244;2022-07-29T04:11:33;94715.94;;;21.74;75.16
11415;BME280;5763;42.714;23.244;2022-07-29T04:14:01;94714.84;;;21.82;74.90
11415;BME280;5763;42.714;23.244;2022-07-29T04:16:28;94711.78;;;21.86;74.83
11415;BME280;5763;42.714;23.244;2022-07-29T04:18:54;94712.22;;;21.90;74.71
11415;BME280;5763;42.714;23.244;2022-07-29T04:21:21;94721.50;;;21.98;74.38
11415;BME280;5763;42.714;23.244;2022-07-29T04:23:48;94720.47;;;22.01;74.40
11415;BME280;5763;42.714;23.244;2022-07-29T04:26:16;94716.69;;;21.98;73.84
11415;BME280;5763;42.714;23.244;2022-07-29T04:28:44;94725.34;;;21.95;73.93
11415;BME280;5763;42.714;23.244;2022-07-29T04:31:12;94726.69;;;21.88;74.56
11415;BME280;5763;42.714;23.244;2022-07-29T04:33:39;94729.69;;;21.90;74.65
11415;BME280;5763;42.714;23.244;2022-07-29T04:36:06;94722.66;;;21.84;75.24
11415;BME280;5763;42.714;23.244;2022-07-29T04:38:33;94725.28;;;21.76;75.87
11415;BME280;5763;42.714;23.244;2022-07-29T04:40:59;94735.97;;;21.72;76.08
11415;BME280;5763;42.714;23.244;2022-07-29T04:43:26;94725.13;;;21.69;76.16
11415;BME280;5763;42.714;23.244;2022-07-29T04:45:54;94733.47;;;21.69;76.10
11415;BME280;5763;42.714;23.244;2022-07-29T04:48:21;94747.69;;;21.60;76.46
11415;BME280;5763;42.714;23.244;2022-07-29T04:50:48;94745.66;;;21.60;76.51
11415;BME280;5763;42.714;23.244;2022-07-29T04:53:14;94744.63;;;21.63;76.68
11415;BME280;5763;42.714;23.244;2022-07-29T04:55:41;94749.44;;;21.63;76.46
11415;BME280;5763;42.714;23.244;2022-07-29T04:58:08;94745.75;;;21.49;77.28
11415;BME280;5763;42.714;23.244;2022-07-29T05:00:35;94740.66;;;21.53;77.16
11415;BME280;5763;42.714;23.244;2022-07-29T05:03:03;94739.69;;;21.51;77.33
11415;BME280;5763;42.714;23.244;2022-07-29T05:05:30;94746.94;;;21.59;76.67
11415;BME280;5763;42.714;23.244;2022-07-29T05:07:56;94746.38;;;21.66;76.42
11415;BME280;5763;42.714;23.244;2022-07-29T05:10:23;94745.03;;;21.78;75.90
11415;BME280;5763;42.714;23.244;2022-07-29T05:12:50;94747.50;;;21.82;75.84
11415;BME280;5763;42.714;23.244;2022-07-29T05:15:17;94743.69;;;21.85;75.64
11415;BME280;5763;42.714;23.244;2022-07-29T05:17:45;94745.22;;;21.86;75.86
11415;BME280;5763;42.714;23.244;2022-07-29T05:20:13;94749.69;;;21.94;75.55
11415;BME280;5763;42.714;23.244;2022-07-29T05:22:39;94740.28;;;21.97;75.10
11415;BME280;5763;42.714;23.244;2022-07-29T05:25:07;94758.91;;;22.08;74.54
11415;BME280;5763;42.714;23.244;2022-07-29T05:27:35;94749.34;;;22.03;74.54
11415;BME280;5763;42.714;23.244;2022-07-29T05:30:03;94747.06;;;22.02;74.51
11415;BME280;5763;42.714;23.244;2022-07-29T05:32:30;94751.00;;;22.12;74.11
11415;BME280;5763;42.714;23.244;2022-07-29T05:34:57;94755.56;;;22.15;74.23
11415;BME280;5763;42.714;23.244;2022-07-29T05:37:25;94756.63;;;22.06;75.18
11415;BME280;5763;42.714;23.244;2022-07-29T05:39:51;94756.47;;;21.99;75.72
11415;BME280;5763;42.714;23.244;2022-07-29T05:42:18;94753.63;;;22.04;75.54
11415;BME280;5763;42.714;23.244;2022-07-29T05:44:45;94761.13;;;22.15;74.48
11415;BME280;5763;42.714;23.244;2022-07-29T05:47:12;94763.38;;;22.16;74.55
11415;BME280;5763;42.714;23.244;2022-07-29T05:49:39;94766.09;;;22.22;74.29
11415;BME280;5763;42.714;23.244;2022-07-29T05:52:06;94766.28;;;22.29;74.37
11415;BME280;5763;42.714;23.244;2022-07-29T05:54:36;94757.63;;;22.33;74.71
11415;BME280;5763;42.714;23.244;2022-07-29T05:57:04;94762.22;;;22.30;75.36
11415;BME280;5763;42.714;23.244;2022-07-29T05:59:37;94767.03;;;22.30;75.38
11415;BME280;5763;42.714;23.244;2022-07-29T06:02:04;94760.69;;;22.29;75.67
11415;BME280;5763;42.714;23.244;2022-07-29T06:04:32;94766.56;;;22.26;75.96
11415;BME280;5763;42.714;23.244;2022-07-29T06:06:59;94760.25;;;22.25;75.72
11415;BME280;5763;42.714;23.244;2022-07-29T06:09:27;94770.06;;;22.32;75.44
11415;BME280;5763;42.714;23.244;2022-07-29T06:11:55;94767.94;;;22.38;75.32
11415;BME280;5763;42.714;23.244;2022-07-29T06:14:23;94766.03;;;22.51;74.67
11415;BME280;5763;42.714;23.244;2022-07-29T06:16:50;94773.38;;;22.54;74.71
11415;BME280;5763;42.714;23.244;2022-07-29T06:19:16;94774.28;;;22.62;74.75
11415;BME280;5763;42.714;23.244;2022-07-29T06:21:44;94763.06;;;22.68;74.56
11415;BME280;5763;42.714;23.244;2022-07-29T06:24:11;94772.03;;;22.61;74.08
11415;BME280;5763;42.714;23.244;2022-07-29T06:26:39;94760.00;;;22.66;73.60
11415;BME280;5763;42.714;23.244;2022-07-29T06:29:08;94761.69;;;22.74;73.83
11415;BME280;5763;42.714;23.244;2022-07-29T06:31:37;94755.56;;;22.76;73.91
11415;BME280;5763;42.714;23.244;2022-07-29T06:34:04;94758.25;;;22.87;73.63
11415;BME280;5763;42.714;23.244;2022-07-29T06:36:34;94760.63;;;22.96;73.25
11415;BME280;5763;42.714;23.244;2022-07-29T06:39:04;94761.25;;;23.07;72.86
11415;BME280;5763;42.714;23.244;2022-07-29T06:41:33;94756.84;;;23.12;73.24
11415;BME280;5763;42.714;23.244;2022-07-29T06:44:00;94755.34;;;23.29;72.25
11415;BME280;5763;42.714;23.244;2022-07-29T06:46:29;94755.47;;;23.37;72.20
11415;BME280;5763;42.714;23.244;2022-07-29T06:48:56;94748.66;;;23.51;71.86
11415;BME280;5763;42.714;23.244;2022-07-29T06:51:22;94748.78;;;23.58;71.19
11415;BME280;5763;42.714;23.244;2022-07-29T06:53:50;94750.28;;;23.59;71.40
11415;BME280;5763;42.714;23.244;2022-07-29T06:56:17;94746.97;;;23.61;71.41
11415;BME280;5763;42.714;23.244;2022-07-29T06:58:44;94756.47;;;23.71;71.12
11415;BME280;5763;42.714;23.244;2022-07-29T07:01:11;94748.72;;;23.77;71.56
11415;BME280;5763;42.714;23.244;2022-07-29T07:03:40;94742.94;;;23.88;71.11
11415;BME280;5763;42.714;23.244;2022-07-29T07:06:07;94744.69;;;24.04;71.17
11415;BME280;5763;42.714;23.244;2022-07-29T07:08:34;94752.69;;;24.13;69.13
11415;BME280;5763;42.714;23.244;2022-07-29T07:11:01;94752.91;;;24.28;68.48
11415;BME280;5763;42.714;23.244;2022-07-29T07:13:27;94744.53;;;24.41;68.33
11415;BME280;5763;42.714;23.244;2022-07-29T07:16:00;94751.06;;;24.56;66.60
11415;BME280;5763;42.714;23.244;2022-07-29T07:18:28;94747.44;;;24.61;65.08
11415;BME280;5763;42.714;23.244;2022-07-29T07:20:57;94731.50;;;24.69;63.33
11415;BME280;5763;42.714;23.244;2022-07-29T07:23:24;94749.66;;;24.89;61.62
11415;BME280;5763;42.714;23.244;2022-07-29T07:25:51;94747.28;;;24.93;61.93
11415;BME280;5763;42.714;23.244;2022-07-29T07:28:18;94744.13;;;24.96;60.75
11415;BME280;5763;42.714;23.244;2022-07-29T07:30:45;94734.75;;;25.07;59.80
11415;BME280;5763;42.714;23.244;2022-07-29T07:33:12;94744.84;;;25.10;58.83
11415;BME280;5763;42.714;23.244;2022-07-29T07:35:40;94743.50;;;25.24;59.27
11415;BME280;5763;42.714;23.244;2022-07-29T07:38:09;94742.50;;;25.34;58.89
11415;BME280;5763;42.714;23.244;2022-07-29T07:40:36;94741.84;;;25.41;58.82
11415;BME280;5763;42.714;23.244;2022-07-29T07:43:03;94749.38;;;25.46;58.38
11415;BME280;5763;42.714;23.244;2022-07-29T07:45:29;94751.16;;;25.57;57.58
11415;BME280;5763;42.714;23.244;2022-07-29T07:47:57;94743.91;;;25.61;57.57
11415;BME280;5763;42.714;23.244;2022-07-29T07:50:24;94735.97;;;25.73;57.15
11415;BME280;5763;42.714;23.244;2022-07-29T07:52:53;94743.09;;;25.74;56.50
11415;BME280;5763;42.714;23.244;2022-07-29T07:55:24;94729.63;;;25.72;55.82
11415;BME280;5763;42.714;23.244;2022-07-29T07:57:51;94739.25;;;25.84;55.17
11415;BME280;5763;42.714;23.244;2022-07-29T08:00:18;94734.19;;;25.83;55.60
11415;BME280;5763;42.714;23.244;2022-07-29T08:02:45;94735.91;;;25.86;56.31
11415;BME280;5763;42.714;23.244;2022-07-29T08:05:12;94733.38;;;25.95;54.63
11415;BME280;5763;42.714;23.244;2022-07-29T08:07:42;94737.22;;;25.85;55.34
11415;BME280;5763;42.714;23.244;2022-07-29T08:10:09;94733.19;;;25.93;55.46
11415;BME280;5763;42.714;23.244;2022-07-29T08:12:37;94734.75;;;26.02;54.98
11415;BME280;5763;42.714;23.244;2022-07-29T08:15:05;94738.75;;;26.14;55.41
11415;BME280;5763;42.714;23.244;2022-07-29T08:17:33;94740.53;;;26.24;54.82
11415;BME280;5763;42.714;23.244;2022-07-29T08:20:00;94739.81;;;26.31;53.97
11415;BME280;5763;42.714;23.244;2022-07-29T08:22:27;94747.19;;;26.42;54.34
11415;BME280;5763;42.714;23.244;2022-07-29T08:24:54;94739.84;;;26.39;53.05
11415;BME280;5763;42.714;23.244;2022-07-29T08:27:21;94743.09;;;26.50;53.13
11415;BME280;5763;42.714;23.244;2022-07-29T08:29:50;94741.72;;;26.64;53.51
11415;BME280;5763;42.714;23.244;2022-07-29T08:32:16;94738.97;;;26.72;53.62
11415;BME280;5763;42.714;23.244;2022-07-29T08:34:43;94737.13;;;26.82;52.77
11415;BME280;5763;42.714;23.244;2022-07-29T08:37:11;94732.31;;;26.97;53.13
11415;BME280;5763;42.714;23.244;2022-07-29T08:39:38;94737.97;;;27.05;52.22
11415;BME280;5763;42.714;23.244;2022-07-29T08:42:06;94734.63;;;27.14;51.55
11415;BME280;5763;42.714;23.244;2022-07-29T08:44:33;94731.69;;;27.19;51.14
11415;BME280;5763;42.714;23.244;2022-07-29T08:47:01;94734.53;;;27.27;50.24
11415;BME280;5763;42.714;23.244;2022-07-29T08:49:28;94738.09;;;27.42;49.79
11415;BME280;5763;42.714;23.244;2022-07-29T08:51:55;94727.63;;;27.43;49.25
11415;BME280;5763;42.714;23.244;2022-07-29T08:54:25;94725.75;;;27.45;48.51
11415;BME280;5763;42.714;23.244;2022-07-29T08:56:54;94724.84;;;27.58;49.48
11415;BME280;5763;42.714;23.244;2022-07-29T08:59:24;94720.16;;;27.68;49.02
11415;BME280;5763;42.714;23.244;2022-07-29T09:01:53;94723.53;;;27.74;48.28
11415;BME280;5763;42.714;23.244;2022-07-29T09:04:23;94722.44;;;27.92;48.83
11415;BME280;5763;42.714;23.244;2022-07-29T09:06:51;94726.72;;;28.00;47.27
11415;BME280;5763;42.714;23.244;2022-07-29T09:09:21;94714.34;;;28.11;46.35
11415;BME280;5763;42.714;23.244;2022-07-29T09:11:48;94707.41;;;28.19;46.90
11415;BME280;5763;42.714;23.244;2022-07-29T09:14:14;94710.03;;;28.40;46.40
11415;BME280;5763;42.714;23.244;2022-07-29T09:16:46;94708.47;;;28.54;45.98
11415;BME280;5763;42.714;23.244;2022-07-29T09:19:27;94703.72;;;28.71;44.64
11415;BME280;5763;42.714;23.244;2022-07-29T09:21:57;94714.47;;;28.65;45.39
11415;BME280;5763;42.714;23.244;2022-07-29T09:24:43;94720.97;;;28.83;44.29
11415;BME280;5763;42.714;23.244;2022-07-29T09:27:24;94711.59;;;28.80;43.51
11415;BME280;5763;42.714;23.244;2022-07-29T09:29:58;94701.59;;;28.94;43.82
11415;BME280;5763;42.714;23.244;2022-07-29T09:32:27;94704.38;;;29.09;43.05
11415;BME280;5763;42.714;23.244;2022-07-29T09:35:20;94705.94;;;29.27;43.23
11415;BME280;5763;42.714;23.244;2022-07-29T09:37:48;94706.66;;;29.35;43.20
11415;BME280;5763;42.714;23.244;2022-07-29T09:40:16;94706.16;;;29.54;41.98
11415;BME280;5763;42.714;23.244;2022-07-29T09:42:43;94711.22;;;29.63;41.52
11415;BME280;5763;42.714;23.244;2022-07-29T09:45:11;94702.28;;;29.74;41.25
11415;BME280;5763;42.714;23.244;2022-07-29T09:47:42;94693.53;;;29.87;40.74
11415;BME280;5763;42.714;23.244;2022-07-29T09:50:12;94696.91;;;30.10;40.50
11415;BME280;5763;42.714;23.244;2022-07-29T09:52:47;94695.88;;;30.22;40.00
11415;BME280;5763;42.714;23.244;2022-07-29T09:55:16;94694.22;;;30.36;39.61
11415;BME280;5763;42.714;23.244;2022-07-29T09:57:44;94701.97;;;30.53;38.78
11415;BME280;5763;42.714;23.244;2022-07-29T10:00:13;94686.03;;;30.65;37.45
11415;BME280;5763;42.714;23.244;2022-07-29T10:02:43;94691.63;;;30.72;37.77
11415;BME280;5763;42.714;23.244;2022-07-29T10:05:18;94687.47;;;30.73;38.38
11415;BME280;5763;42.714;23.244;2022-07-29T10:07:48;94690.34;;;30.83;37.64
11415;BME280;5763;42.714;23.244;2022-07-29T10:10:20;94686.44;;;30.95;37.53
11415;BME280;5763;42.714;23.244;2022-07-29T10:12:53;94681.94;;;31.09;36.90
11415;BME280;5763;42.714;23.244;2022-07-29T10:15:22;94675.19;;;31.05;36.91
11415;BME280;5763;42.714;23.244;2022-07-29T10:17:49;94672.94;;;31.20;36.79
11415;BME280;5763;42.714;23.244;2022-07-29T10:20:16;94660.22;;;31.38;37.02
11415;BME280;5763;42.714;23.244;2022-07-29T10:22:43;94664.50;;;31.56;35.89
11415;BME280;5763;42.714;23.244;2022-07-29T10:25:14;94661.25;;;31.69;35.92
11415;BME280;5763;42.714;23.244;2022-07-29T10:27:41;94659.28;;;31.89;36.42
11415;BME280;5763;42.714;23.244;2022-07-29T10:30:09;94662.00;;;32.06;35.70
11415;BME280;5763;42.714;23.244;2022-07-29T10:35:44;94656.22;;;32.23;35.44
11415;BME280;5763;42.714;23.244;2022-07-29T10:38:33;94644.22;;;32.41;33.71
11415;BME280;5763;42.714;23.244;2022-07-29T10:41:12;94645.13;;;32.53;33.11
11415;BME280;5763;42.714;23.244;2022-07-29T10:43:56;94641.06;;;32.75;33.46
11415;BME280;5763;42.714;23.244;2022-07-29T10:46:24;94640.63;;;32.69;33.52
11415;BME280;5763;42.714;23.244;2022-07-29T10:49:05;94630.50;;;32.85;33.31
11415;BME280;5763;42.714;23.244;2022-07-29T10:51:57;94629.88;;;32.96;33.54
11415;BME280;5763;42.714;23.244;2022-07-29T10:54:41;94622.88;;;33.07;33.72
11415;BME280;5763;42.714;23.244;2022-07-29T10:57:13;94626.88;;;33.13;33.77
11415;BME280;5763;42.714;23.244;2022-07-29T10:59:41;94628.22;;;33.22;33.08
11415;BME280;5763;42.714;23.244;2022-07-29T11:05:09;94608.34;;;33.31;32.18
11415;BME280;5763;42.714;23.244;2022-07-29T11:07:38;94603.91;;;33.59;32.31
11415;BME280;5763;42.714;23.244;2022-07-29T11:10:22;94607.97;;;33.77;32.84
11415;BME280;5763;42.714;23.244;2022-07-29T11:12:51;94606.44;;;33.95;30.90
11415;BME280;5763;42.714;23.244;2022-07-29T11:15:19;94609.69;;;34.01;31.06
11415;BME280;5763;42.714;23.244;2022-07-29T11:18:02;94607.50;;;33.90;29.74
11415;BME280;5763;42.714;23.244;2022-07-29T11:20:47;94597.25;;;34.06;29.95
11415;BME280;5763;42.714;23.244;2022-07-29T11:23:23;94606.31;;;34.14;30.24
11415;BME280;5763;42.714;23.244;2022-07-29T11:26:16;94598.19;;;34.20;30.33
11415;BME280;5763;42.714;23.244;2022-07-29T11:29:01;94607.41;;;34.09;29.96
11415;BME280;5763;42.714;23.244;2022-07-29T11:31:35;94591.97;;;34.12;30.58
11415;BME280;5763;42.714;23.244;2022-07-29T11:34:23;94604.44;;;34.28;30.43
11415;BME280;5763;42.714;23.244;2022-07-29T11:37:18;94598.69;;;34.37;30.37
11415;BME280;5763;42.714;23.244;2022-07-29T11:39:47;94591.78;;;34.40;30.38
11415;BME280;5763;42.714;23.244;2022-07-29T11:42:41;94589.66;;;34.62;30.07
11415;BME280;5763;42.714;23.244;2022-07-29T11:45:10;94588.47;;;34.65;29.36
11415;BME280;5763;42.714;23.244;2022-07-29T11:47:40;94581.88;;;34.83;29.21
11415;BME280;5763;42.714;23.244;2022-07-29T11:50:09;94577.59;;;35.05;28.88
11415;BME280;5763;42.714;23.244;2022-07-29T11:52:38;94584.19;;;35.19;28.49
11415;BME280;5763;42.714;23.244;2022-07-29T11:55:10;94582.94;;;35.22;28.82
11415;BME280;5763;42.714;23.244;2022-07-29T11:57:37;94586.59;;;35.34;28.39
11415;BME280;5763;42.714;23.244;2022-07-29T12:00:21;94570.47;;;35.27;27.96
11415;BME280;5763;42.714;23.244;2022-07-29T12:02:48;94574.41;;;35.22;28.36
11415;BME280;5763;42.714;23.244;2022-07-29T12:05:15;94582.66;;;35.39;28.06
11415;BME280;5763;42.714;23.244;2022-07-29T12:07:42;94576.81;;;35.37;27.44
11415;BME280;5763;42.714;23.244;2022-07-29T12:10:09;94573.72;;;35.33;28.07
11415;BME280;5763;42.714;23.244;2022-07-29T12:12:36;94577.31;;;35.45;28.04
11415;BME280;5763;42.714;23.244;2022-07-29T12:15:15;94584.16;;;35.52;27.51
11415;BME280;5763;42.714;23.244;2022-07-29T12:17:46;94577.69;;;35.40;27.68
11415;BME280;5763;42.714;23.244;2022-07-29T12:20:22;94575.59;;;35.52;27.72
11415;BME280;5763;42.714;23.244;2022-07-29T12:22:49;94574.72;;;35.61;27.58
11415;BME280;5763;42.714;23.244;2022-07-29T12:25:16;94572.78;;;35.75;27.76
11415;BME280;5763;42.714;23.244;2022-07-29T12:27:44;94564.59;;;35.81;27.40
11415;BME280;5763;42.714;23.244;2022-07-29T12:30:12;94561.13;;;35.94;26.78
11415;BME280;5763;42.714;23.244;2022-07-29T12:32:43;94563.47;;;35.86;27.29
11415;BME280;5763;42.714;23.244;2022-07-29T12:35:12;94555.53;;;35.96;27.03
11415;BME280;5763;42.714;23.244;2022-07-29T12:37:40;94551.69;;;36.03;26.14
11415;BME280;5763;42.714;23.244;2022-07-29T12:40:09;94554.16;;;36.08;26.13
11415;BME280;5763;42.714;23.244;2022-07-29T12:42:36;94554.16;;;36.08;25.85
11415;BME280;5763;42.714;23.244;2022-07-29T12:45:04;94558.84;;;36.15;26.42
11415;BME280;5763;42.714;23.244;2022-07-29T12:47:31;94556.28;;;35.96;26.58
11415;BME280;5763;42.714;23.244;2022-07-29T12:50:10;94548.84;;;35.80;26.04
11415;BME280;5763;42.714;23.244;2022-07-29T12:52:37;94549.47;;;35.90;26.22
11415;BME280;5763;42.714;23.244;2022-07-29T12:55:04;94545.66;;;35.85;26.37
11415;BME280;5763;42.714;23.244;2022-07-29T12:57:32;94548.47;;;35.97;26.37
11415;BME280;5763;42.714;23.244;2022-07-29T13:00:10;94538.41;;;36.07;26.11
11415;BME280;5763;42.714;23.244;2022-07-29T13:02:40;94528.34;;;36.18;25.61
11415;BME280;5763;42.714;23.244;2022-07-29T13:05:10;94535.06;;;35.99;25.72
11415;BME280;5763;42.714;23.244;2022-07-29T13:07:38;94535.06;;;35.99;26.29
11415;BME280;5763;42.714;23.244;2022-07-29T13:10:13;94533.94;;;36.16;26.21
11415;BME280;5763;42.714;23.244;2022-07-29T13:13:01;94522.66;;;36.18;25.50
11415;BME280;5763;42.714;23.244;2022-07-29T13:15:28;94529.34;;;36.22;25.75
11415;BME280;5763;42.714;23.244;2022-07-29T13:17:55;94528.72;;;36.24;25.57
11415;BME280;5763;42.714;23.244;2022-07-29T13:20:26;94517.34;;;36.24;25.60
11415;BME280;5763;42.714;23.244;2022-07-29T13:22:55;94521.78;;;36.27;25.66